Ashburn, Georgia
Current Conditions -  °F | °C
As of 11:15 AM on Friday 21 Nov 2014 (Local Time) from KCKF Reporting Station
Clear Clear  
Wind Chill: 64°   Ceiling: Unl
Heat Index: 64°   Visibility: 10mi
Dew Point: 38°   Wind: 3mph
Humidity: 38%   Direction: 50°NE
Pressure: 30.4"   Gusts: NA
Location:  31.71°N, 83.65°W
Report Text: KCKF 211615Z AUTO 05003KT 10SM CLR 18/03 A3040 RMK AO2 T01760031
Loading
Personal Weather Stations






























Interactive Weather Map New forecast layout! Learn more

10-Day Weather Forecast

Advertisements
Track Severe Weather on mobile